Time;durP1;ratioP1;P1;durP2;ratioP2;P2;SDS_P1;SDS_P2;PMS_P1;PMS_P2;Temp;Humidity;BMP_temperature;BMP_pressure;BME280_temperature;BME280_humidity;BME280_pressure;Samples;Min_cycle;Max_cycle;Signal;HPM_P1;HPM_P2
2022/08/22 00:01:27;;;;;;;2.35;2.10;;;23.10;64.60;;;;;;4997897;28;20188;-71
2022/08/22 00:04:07;;;;;;;2.30;1.95;;;23.10;64.60;;;;;;5030817;28;20196;-71
2022/08/22 00:06:52;;;;;;;2.20;2.00;;;23.00;64.40;;;;;;5030191;28;20196;-71
2022/08/22 00:09:48;;;;;;;2.53;2.10;;;23.00;64.30;;;;;;5032517;28;20210;-72
2022/08/22 00:12:22;;;;;;;2.10;2.00;;;23.00;64.40;;;;;;5027500;28;20647;-71
2022/08/22 00:15:21;;;;;;;2.20;2.00;;;23.00;64.30;;;;;;5033958;28;20643;-71
2022/08/22 00:18:11;;;;;;;2.10;1.88;;;23.00;64.50;;;;;;5033613;28;20278;-72
2022/08/22 00:20:58;;;;;;;2.45;2.05;;;23.00;64.50;;;;;;5035348;28;20183;-71
2022/08/22 00:23:51;;;;;;;1.85;1.75;;;23.00;64.40;;;;;;5034945;28;20229;-71
2022/08/22 00:26:48;;;;;;;2.22;2.03;;;23.10;64.50;;;;;;5033220;28;20184;-71
2022/08/22 00:29:24;;;;;;;2.33;2.13;;;23.00;64.40;;;;;;5029126;28;20215;-71
2022/08/22 00:32:22;;;;;;;2.38;2.17;;;23.00;64.50;;;;;;5033737;28;20201;-71
2022/08/22 00:35:12;;;;;;;2.30;2.20;;;23.00;64.50;;;;;;5032516;28;20202;-71
2022/08/22 00:37:51;;;;;;;2.42;1.90;;;23.00;64.40;;;;;;5033002;28;20234;-71
2022/08/22 00:40:34;;;;;;;2.40;2.20;;;23.00;64.40;;;;;;5034527;28;20190;-71
2022/08/22 00:43:09;;;;;;;1.90;1.80;;;23.00;64.40;;;;;;5033448;28;20190;-71
2022/08/22 00:46:02;;;;;;;2.50;2.10;;;23.00;64.40;;;;;;5032642;28;20179;-71
2022/08/22 00:48:52;;;;;;;2.28;2.08;;;23.00;64.50;;;;;;5034288;28;20207;-71
2022/08/22 00:52:11;;;;;;;2.15;2.05;;;23.00;64.40;;;;;;5033132;28;20190;-71
2022/08/22 00:55:05;;;;;;;2.00;1.90;;;23.00;64.30;;;;;;5033760;28;20179;-71
2022/08/22 00:58:14;;;;;;;2.45;2.20;;;23.00;64.40;;;;;;5033364;28;20217;-71
2022/08/22 01:00:52;;;;;;;2.63;2.30;;;23.00;64.40;;;;;;5034405;28;20176;-71
2022/08/22 01:03:45;;;;;;;1.92;1.83;;;23.00;64.30;;;;;;5032858;28;20187;-71
2022/08/22 01:07:04;;;;;;;2.28;2.08;;;23.00;64.30;;;;;;5031654;28;20302;-70
2022/08/22 01:09:51;;;;;;;1.73;1.63;;;23.00;64.40;;;;;;5013035;28;20223;-71
2022/08/22 01:12:43;;;;;;;1.88;1.77;;;23.00;64.40;;;;;;5013219;28;20655;-71
2022/08/22 01:15:18;;;;;;;2.30;2.10;;;22.90;64.20;;;;;;5012992;28;20283;-71
2022/08/22 01:18:37;;;;;;;2.28;2.08;;;23.00;64.30;;;;;;5028661;28;20222;-71
2022/08/22 01:21:53;;;;;;;1.88;1.77;;;23.00;64.40;;;;;;5001296;28;20199;-72
2022/08/22 01:25:16;;;;;;;2.40;2.20;;;23.00;64.40;;;;;;5012874;28;20192;-71
2022/08/22 01:28:01;;;;;;;2.13;1.92;;;22.90;64.20;;;;;;5028485;28;20219;-71
2022/08/22 01:31:01;;;;;;;2.35;2.15;;;22.90;64.30;;;;;;5030204;28;20273;-71
2022/08/22 01:33:43;;;;;;;1.88;1.77;;;22.90;64.20;;;;;;5021187;28;20199;-71
2022/08/22 01:36:43;;;;;;;1.63;1.52;;;22.90;64.20;;;;;;5048479;28;20199;-71
2022/08/22 01:39:47;;;;;;;2.03;1.92;;;22.90;64.10;;;;;;5048946;28;20231;-71
2022/08/22 01:42:42;;;;;;;1.90;1.80;;;22.90;64.20;;;;;;5032476;28;20186;-71
2022/08/22 01:45:57;;;;;;;2.10;1.90;;;22.90;64.20;;;;;;5032353;28;20258;-71
2022/08/22 01:48:48;;;;;;;2.08;1.85;;;22.90;64.10;;;;;;5031731;28;20222;-71
2022/08/22 01:51:35;;;;;;;1.70;1.60;;;22.90;64.20;;;;;;5015664;28;20198;-71
2022/08/22 01:54:10;;;;;;;2.25;2.05;;;22.90;64.20;;;;;;5031834;28;20180;-71
2022/08/22 01:56:44;;;;;;;2.13;1.98;;;22.90;64.20;;;;;;5032587;28;20708;-71
2022/08/22 01:59:23;;;;;;;2.03;1.80;;;22.90;64.20;;;;;;5033014;28;20269;-71
2022/08/22 02:01:50;;;;;;;1.90;1.80;;;22.90;64.20;;;;;;5048813;28;20194;-71
2022/08/22 02:04:38;;;;;;;1.80;1.70;;;22.90;64.20;;;;;;5015639;28;20183;-71
2022/08/22 02:07:32;;;;;;;2.03;1.92;;;22.90;64.20;;;;;;5014676;28;20245;-71
2022/08/22 02:10:06;;;;;;;2.03;1.92;;;22.90;64.20;;;;;;5033036;28;20184;-71
2022/08/22 02:13:00;;;;;;;2.35;2.15;;;22.90;64.20;;;;;;5031532;28;20190;-71
2022/08/22 02:15:38;;;;;;;2.00;1.90;;;22.90;64.20;;;;;;5031628;28;20183;-72
2022/08/22 02:18:07;;;;;;;1.83;1.70;;;22.90;64.20;;;;;;5009820;28;20219;-71
2022/08/22 02:21:15;;;;;;;2.00;1.90;;;22.90;64.10;;;;;;5031301;28;20191;-71
2022/08/22 02:24:32;;;;;;;1.80;1.70;;;22.90;64.10;;;;;;5031803;28;20191;-71
2022/08/22 02:27:20;;;;;;;1.90;1.80;;;22.90;64.20;;;;;;5029791;28;20203;-71
2022/08/22 02:30:08;;;;;;;2.20;2.10;;;22.90;64.10;;;;;;5031132;28;20293;-71
2022/08/22 02:32:40;;;;;;;1.83;1.73;;;22.80;64.00;;;;;;5031543;28;20187;-71
2022/08/22 02:35:13;;;;;;;2.30;2.10;;;22.90;64.20;;;;;;5032398;28;20187;-71
2022/08/22 02:38:08;;;;;;;2.33;2.13;;;22.90;64.10;;;;;;5030583;28;20254;-71
2022/08/22 02:40:52;;;;;;;1.70;1.60;;;22.90;64.10;;;;;;5031362;28;20559;-71
2022/08/22 02:43:25;;;;;;;2.03;1.92;;;22.90;64.10;;;;;;5031234;28;20207;-71
2022/08/22 02:46:22;;;;;;;2.47;1.95;;;22.90;64.10;;;;;;5030471;28;20179;-71
2022/08/22 02:49:14;;;;;;;1.90;1.80;;;22.90;64.00;;;;;;5029572;28;20207;-71
2022/08/22 02:52:10;;;;;;;2.33;2.13;;;22.90;64.10;;;;;;5031214;28;20278;-71
2022/08/22 02:54:59;;;;;;;2.15;1.95;;;22.90;64.20;;;;;;5032151;28;20180;-71
2022/08/22 02:57:56;;;;;;;2.00;1.80;;;22.90;64.10;;;;;;5030192;28;20711;-71
2022/08/22 03:00:21;;;;;;;2.00;1.90;;;22.80;64.00;;;;;;5031933;28;20274;-71
2022/08/22 03:03:15;;;;;;;1.90;1.73;;;22.90;64.10;;;;;;5030723;28;20283;-71
2022/08/22 03:05:49;;;;;;;2.10;2.00;;;22.90;64.00;;;;;;5030199;28;20590;-71
2022/08/22 03:08:51;;;;;;;2.00;1.90;;;22.80;64.00;;;;;;5030880;28;20226;-71
2022/08/22 03:11:30;;;;;;;1.67;1.58;;;22.80;63.90;;;;;;5030899;28;20262;-71
2022/08/22 03:14:13;;;;;;;2.00;1.90;;;22.80;63.90;;;;;;5014155;28;20217;-71
2022/08/22 03:17:11;;;;;;;2.08;1.75;;;22.80;63.90;;;;;;5030319;28;20187;-71
2022/08/22 03:19:57;;;;;;;1.90;1.80;;;22.80;64.00;;;;;;5030534;28;20222;-71
2022/08/22 03:22:43;;;;;;;2.20;2.00;;;22.80;63.90;;;;;;5030698;28;20187;-71
2022/08/22 03:25:22;;;;;;;2.13;1.77;;;22.80;63.90;;;;;;5030490;28;20786;-71
2022/08/22 03:28:09;;;;;;;1.85;1.75;;;22.80;63.90;;;;;;5029859;28;20198;-71
2022/08/22 03:30:54;;;;;;;1.75;1.65;;;22.80;63.90;;;;;;5030341;28;20249;-71
2022/08/22 03:33:29;;;;;;;2.00;1.90;;;22.80;63.90;;;;;;5028264;28;20192;-71
2022/08/22 03:36:05;;;;;;;1.75;1.65;;;22.80;63.90;;;;;;5011357;28;20195;-71
2022/08/22 03:38:31;;;;;;;1.65;1.55;;;22.80;63.90;;;;;;5010819;28;20247;-71
2022/08/22 03:41:11;;;;;;;3.67;1.90;;;22.80;63.90;;;;;;5010513;28;20180;-71
2022/08/22 03:44:22;;;;;;;1.92;1.83;;;22.80;63.90;;;;;;5011175;28;20184;-71
2022/08/22 03:47:11;;;;;;;1.80;1.70;;;22.80;63.90;;;;;;5008893;28;20242;-71
2022/08/22 03:49:58;;;;;;;1.75;1.65;;;22.80;63.90;;;;;;5010696;28;20213;-71
2022/08/22 03:53:06;;;;;;;1.92;1.83;;;22.80;63.90;;;;;;4994399;28;20659;-71
2022/08/22 03:55:53;;;;;;;1.60;1.50;;;22.70;63.70;;;;;;4994496;28;20229;-71
2022/08/22 03:59:03;;;;;;;2.28;2.17;;;22.80;63.90;;;;;;5010605;28;20228;-71
2022/08/22 04:02:04;;;;;;;1.80;1.70;;;22.80;63.90;;;;;;5010496;28;20188;-71
2022/08/22 04:04:51;;;;;;;2.30;2.10;;;22.80;63.90;;;;;;5008074;28;20675;-71
2022/08/22 04:07:57;;;;;;;2.20;2.00;;;22.80;63.90;;;;;;5009913;28;20659;-71
2022/08/22 04:10:35;;;;;;;2.05;1.95;;;22.80;63.90;;;;;;4994278;28;20188;-71
2022/08/22 04:13:30;;;;;;;1.90;1.80;;;22.80;63.90;;;;;;5010575;28;20187;-71
2022/08/22 04:16:28;;;;;;;2.03;1.92;;;22.70;63.80;;;;;;5009525;28;20246;-71
2022/08/22 04:19:42;;;;;;;2.30;1.80;;;22.70;63.80;;;;;;5010486;28;20224;-71
2022/08/22 04:22:29;;;;;;;2.15;1.90;;;22.80;63.90;;;;;;5003235;28;20219;-71
2022/08/22 04:25:14;;;;;;;1.73;1.63;;;22.70;63.80;;;;;;4994161;28;20275;-71
2022/08/22 04:28:07;;;;;;;1.80;1.70;;;22.70;63.80;;;;;;5009823;28;20188;-71
2022/08/22 04:30:51;;;;;;;1.88;1.77;;;22.80;63.90;;;;;;5010368;28;20188;-71
2022/08/22 04:33:52;;;;;;;2.15;1.90;;;22.80;64.70;;;;;;5010571;28;20192;-71
2022/08/22 04:36:38;;;;;;;1.80;1.70;;;22.80;63.90;;;;;;5009760;28;20179;-71
2022/08/22 04:39:34;;;;;;;2.00;1.80;;;22.80;63.90;;;;;;5010079;28;20224;-71
2022/08/22 04:42:24;;;;;;;2.08;1.88;;;22.80;63.90;;;;;;5012085;28;20168;-71
2022/08/22 04:45:21;;;;;;;2.22;2.03;;;22.80;63.90;;;;;;5013182;28;20203;-71
2022/08/22 04:48:27;;;;;;;2.08;1.75;;;22.80;63.90;;;;;;4996369;28;20242;-71
2022/08/22 04:51:04;;;;;;;1.85;1.75;;;22.80;63.90;;;;;;5028996;28;20236;-71
2022/08/22 04:53:47;;;;;;;1.75;1.58;;;22.80;63.90;;;;;;5034506;28;20190;-71
2022/08/22 04:56:44;;;;;;;1.90;1.80;;;22.70;63.80;;;;;;5016054;28;20732;-71
2022/08/22 04:59:15;;;;;;;1.38;1.27;;;22.80;63.90;;;;;;5032911;28;20309;-71
2022/08/22 05:01:58;;;;;;;1.77;1.67;;;22.70;63.80;;;;;;5033691;28;20222;-71
2022/08/22 05:04:46;;;;;;;1.85;1.75;;;22.70;63.80;;;;;;5033303;28;20183;-71
2022/08/22 05:07:18;;;;;;;1.83;1.73;;;22.70;63.80;;;;;;5032383;28;20183;-71
2022/08/22 05:09:52;;;;;;;1.70;1.60;;;22.70;63.80;;;;;;5032854;28;20222;-71
2022/08/22 05:12:30;;;;;;;2.00;1.90;;;22.70;63.80;;;;;;5016493;28;20191;-71
2022/08/22 05:15:23;;;;;;;1.67;1.58;;;22.70;63.80;;;;;;5033115;28;20252;-71
2022/08/22 05:17:53;;;;;;;2.15;1.98;;;22.70;63.80;;;;;;5032274;28;20293;-71
2022/08/22 05:20:24;;;;;;;2.20;2.00;;;22.70;63.80;;;;;;5034397;28;20241;-71
2022/08/22 05:23:00;;;;;;;2.00;1.90;;;22.70;63.80;;;;;;5032722;28;20179;-71
2022/08/22 05:25:32;;;;;;;1.98;1.88;;;22.70;63.80;;;;;;5032901;28;20209;-71
2022/08/22 05:28:10;;;;;;;2.17;1.98;;;22.70;63.70;;;;;;5031951;28;20218;-71
2022/08/22 05:30:38;;;;;;;2.05;1.92;;;22.70;63.80;;;;;;5033678;28;20194;-71
2022/08/22 05:33:29;;;;;;;1.55;1.45;;;22.70;63.70;;;;;;5032793;28;20278;-71
2022/08/22 05:36:12;;;;;;;1.70;1.60;;;22.70;63.80;;;;;;5033410;28;20195;-71
2022/08/22 05:38:53;;;;;;;1.77;1.67;;;22.70;63.80;;;;;;5023928;28;20294;-73
2022/08/22 05:41:24;;;;;;;1.90;1.80;;;22.70;63.80;;;;;;5014392;28;20171;-71
2022/08/22 05:43:53;;;;;;;1.83;1.73;;;22.70;63.80;;;;;;5014288;28;20176;-71
2022/08/22 05:47:25;;;;;;;2.13;2.03;;;22.70;63.80;;;;;;5028907;28;20184;-72
2022/08/22 05:50:11;;;;;;;1.90;1.80;;;22.70;63.80;;;;;;5009662;28;20219;-72
2022/08/22 05:52:58;;;;;;;1.88;1.77;;;22.60;63.70;;;;;;5029399;28;20195;-72
2022/08/22 05:55:36;;;;;;;2.13;1.92;;;22.60;63.70;;;;;;5029393;28;20652;-71
2022/08/22 05:58:25;;;;;;;1.70;1.60;;;22.70;63.80;;;;;;5014689;28;20223;-72
2022/08/22 06:01:04;;;;;;;2.10;1.90;;;22.70;63.80;;;;;;5033738;28;20190;-72
2022/08/22 06:03:56;;;;;;;1.92;1.83;;;22.70;63.80;;;;;;5032648;28;20167;-72
2022/08/22 06:06:25;;;;;;;2.10;2.00;;;22.70;63.80;;;;;;5031970;28;20171;-72
2022/08/22 06:09:02;;;;;;;1.80;1.70;;;22.70;63.80;;;;;;5032659;28;20195;-72
2022/08/22 06:12:35;;;;;;;2.13;2.00;;;22.70;63.80;;;;;;5033586;28;20163;-72
2022/08/22 06:15:15;;;;;;;2.33;1.70;;;22.70;63.80;;;;;;4965181;28;20205;-72
2022/08/22 06:17:48;;;;;;;2.38;2.17;;;22.70;63.80;;;;;;4939187;28;20263;-71
2022/08/22 06:20:28;;;;;;;2.05;1.85;;;22.70;63.80;;;;;;5022362;28;20218;-72
2022/08/22 06:23:00;;;;;;;2.20;2.00;;;22.70;63.80;;;;;;5048835;28;20180;-72
2022/08/22 06:25:38;;;;;;;1.92;1.83;;;22.70;63.80;;;;;;5033704;28;20194;-72
2022/08/22 06:28:10;;;;;;;2.25;2.05;;;22.70;63.80;;;;;;5048067;28;20211;-72
2022/08/22 06:30:38;;;;;;;1.90;1.70;;;22.70;63.80;;;;;;5048976;28;20185;-72
2022/08/22 06:33:17;;;;;;;2.00;1.90;;;22.70;63.70;;;;;;5048611;28;20202;-72
2022/08/22 06:39:28;;;;;;;2.10;2.00;;;22.70;63.80;;;;;;5032965;28;20277;-72
2022/08/22 06:42:05;;;;;;;1.70;1.60;;;22.80;63.90;;;;;;5031743;28;20191;-71
2022/08/22 06:44:49;;;;;;;2.25;2.08;;;22.70;63.80;;;;;;5031834;28;20187;-73
2022/08/22 06:47:26;;;;;;;2.42;2.10;;;22.80;63.90;;;;;;5030923;28;20278;-72
2022/08/22 06:50:05;;;;;;;2.80;2.22;;;22.70;63.80;;;;;;5032809;28;20199;-72
2022/08/22 06:52:49;;;;;;;2.20;2.00;;;22.70;63.80;;;;;;5031683;28;20262;-72
2022/08/22 06:55:15;;;;;;;2.25;2.13;;;22.70;64.60;;;;;;5031694;28;20171;-72
2022/08/22 06:57:48;;;;;;;2.22;2.00;;;22.70;63.80;;;;;;5030801;28;20214;-71
2022/08/22 07:00:16;;;;;;;2.60;2.30;;;22.70;63.80;;;;;;5031591;28;20186;-71
2022/08/22 07:02:54;;;;;;;3.47;2.30;;;22.80;63.90;;;;;;5031418;28;20186;-72
2022/08/22 07:05:32;;;;;;;2.42;2.22;;;22.80;63.90;;;;;;5014441;28;20187;-72
2022/08/22 07:08:10;;;;;;;2.75;2.50;;;22.70;63.80;;;;;;5030657;28;20245;-72
2022/08/22 07:10:54;;;;;;;2.90;2.60;;;22.70;63.80;;;;;;5031456;28;20222;-72
2022/08/22 07:13:21;;;;;;;2.90;2.67;;;22.70;63.80;;;;;;5032445;28;20168;-72
2022/08/22 07:15:56;;;;;;;2.67;2.47;;;22.70;63.80;;;;;;5032609;28;20241;-72
2022/08/22 07:18:26;;;;;;;2.55;2.15;;;22.80;63.90;;;;;;5030766;28;20249;-72
2022/08/22 07:20:58;;;;;;;2.70;2.50;;;22.80;63.90;;;;;;5031303;28;20175;-72
2022/08/22 07:23:40;;;;;;;4.07;2.47;;;22.80;63.90;;;;;;5032388;28;20176;-72
2022/08/22 07:26:37;;;;;;;3.00;2.58;;;22.80;63.90;;;;;;5030024;28;20182;-71
2022/08/22 07:29:36;;;;;;;3.13;2.80;;;22.80;63.90;;;;;;5046719;28;20203;-72
2022/08/22 07:32:17;;;;;;;2.47;2.28;;;22.80;63.90;;;;;;5028036;28;20218;-71
2022/08/22 07:35:05;;;;;;;2.90;2.55;;;22.90;64.00;;;;;;5010814;28;20188;-71
2022/08/22 07:37:55;;;;;;;3.17;2.83;;;22.90;64.00;;;;;;5027139;28;20192;-71
2022/08/22 07:40:45;;;;;;;2.78;2.42;;;22.90;64.00;;;;;;5011402;28;20640;-71
2022/08/22 07:43:36;;;;;;;2.92;2.55;;;22.90;64.00;;;;;;4995490;28;20172;-72
2022/08/22 07:46:41;;;;;;;4.07;2.88;;;22.90;64.00;;;;;;5006828;28;20247;-71
2022/08/22 07:49:32;;;;;;;3.05;2.75;;;22.90;64.00;;;;;;5011322;28;20258;-72
2022/08/22 07:52:08;;;;;;;4.68;2.60;;;22.90;63.90;;;;;;5031063;28;20188;-72
2022/08/22 07:54:45;;;;;;;2.67;2.47;;;23.00;64.00;;;;;;5030909;28;20577;-72
2022/08/22 07:57:21;;;;;;;2.67;2.47;;;22.90;63.80;;;;;;5030744;28;20326;-72
2022/08/22 07:59:55;;;;;;;3.42;2.92;;;23.00;63.90;;;;;;5032050;28;20280;-72
2022/08/22 08:02:23;;;;;;;3.03;2.30;;;23.00;63.80;;;;;;5014326;28;20211;-72
2022/08/22 08:04:53;;;;;;;3.75;2.80;;;23.00;63.70;;;;;;5032035;28;20225;-72
2022/08/22 08:07:30;;;;;;;3.60;2.80;;;23.10;63.80;;;;;;5031347;28;20203;-72
2022/08/22 08:10:13;;;;;;;4.03;2.70;;;23.10;63.80;;;;;;5014280;28;20325;-72
2022/08/22 08:12:45;;;;;;;2.90;2.70;;;23.10;63.80;;;;;;5029339;28;20172;-71
2022/08/22 08:15:18;;;;;;;2.60;2.40;;;23.10;63.90;;;;;;5023696;28;20187;-72
2022/08/22 08:17:55;;;;;;;4.18;2.90;;;23.10;63.80;;;;;;5010121;28;20579;-71
2022/08/22 08:20:26;;;;;;;3.65;2.92;;;23.10;63.90;;;;;;5013713;28;20176;-72
2022/08/22 08:22:54;;;;;;;3.05;2.75;;;23.10;64.10;;;;;;4996230;28;20216;-72
2022/08/22 08:25:28;;;;;;;2.70;2.50;;;23.10;64.10;;;;;;5012550;28;20161;-72
2022/08/22 08:30:59;;;;;;;2.78;2.50;;;23.10;64.20;;;;;;5048548;28;20234;-71
2022/08/22 08:33:30;;;;;;;3.17;2.88;;;23.10;64.20;;;;;;5032332;28;20254;-71
2022/08/22 08:36:10;;;;;;;2.72;2.53;;;23.10;64.20;;;;;;5032996;28;20627;-72
2022/08/22 08:39:11;;;;;;;3.05;2.70;;;23.10;64.20;;;;;;5031625;28;20298;-72
2022/08/22 08:42:05;;;;;;;3.35;3.05;;;23.10;64.20;;;;;;5032998;28;20202;-72
2022/08/22 08:45:11;;;;;;;3.35;3.05;;;23.10;64.20;;;;;;5031888;28;20179;-72
2022/08/22 08:47:58;;;;;;;2.65;2.45;;;23.10;65.00;;;;;;5047713;28;20657;-72
2022/08/22 08:51:18;;;;;;;2.60;2.40;;;23.10;64.20;;;;;;5048443;28;20647;-72
2022/08/22 08:54:11;;;;;;;3.92;2.83;;;23.20;64.30;;;;;;5012398;28;20218;-72
2022/08/22 08:57:23;;;;;;;2.70;2.50;;;23.10;64.10;;;;;;5047628;28;20172;-72
2022/08/22 09:00:13;;;;;;;2.85;2.47;;;23.10;64.20;;;;;;5032652;28;20206;-71
2022/08/22 09:02:48;;;;;;;3.17;2.90;;;23.10;64.20;;;;;;5047994;28;20187;-71
2022/08/22 09:05:39;;;;;;;3.17;2.88;;;23.10;64.20;;;;;;5031436;28;20206;-72
2022/08/22 09:08:25;;;;;;;3.85;2.88;;;23.20;64.30;;;;;;5031782;28;20199;-72
2022/08/22 09:11:10;;;;;;;2.70;2.50;;;23.20;64.30;;;;;;5031201;28;20233;-72
2022/08/22 09:14:11;;;;;;;3.35;3.03;;;23.20;64.30;;;;;;5014637;28;20183;-72
2022/08/22 09:17:12;;;;;;;3.17;2.88;;;23.20;64.30;;;;;;5030618;28;20750;-71
2022/08/22 09:20:35;;;;;;;2.97;2.67;;;23.20;64.30;;;;;;5007346;28;20226;-71
2022/08/22 09:23:46;;;;;;;2.78;2.58;;;23.20;64.40;;;;;;5030955;28;20198;-72
2022/08/22 09:26:28;;;;;;;3.45;3.15;;;23.20;64.30;;;;;;5030839;28;20184;-71
2022/08/22 09:29:34;;;;;;;3.20;2.97;;;23.20;64.30;;;;;;5014047;28;20390;-71
2022/08/22 09:32:28;;;;;;;3.28;2.97;;;23.20;64.30;;;;;;5014187;28;20186;-71
2022/08/22 09:35:11;;;;;;;2.97;2.78;;;23.20;64.30;;;;;;5031819;28;20192;-71
2022/08/22 09:38:20;;;;;;;3.92;3.08;;;23.20;64.30;;;;;;5029832;28;20651;-71
2022/08/22 09:41:08;;;;;;;2.90;2.70;;;23.20;64.30;;;;;;5047375;28;20189;-71
2022/08/22 09:43:54;;;;;;;3.30;3.00;;;23.20;64.30;;;;;;5038291;28;20648;-72
2022/08/22 09:46:30;;;;;;;3.40;3.10;;;23.20;64.30;;;;;;4994096;28;20184;-71
2022/08/22 09:49:10;;;;;;;3.42;3.15;;;23.20;64.30;;;;;;5010510;28;20231;-71
2022/08/22 09:52:19;;;;;;;3.20;2.92;;;23.20;64.40;;;;;;5012130;28;20529;-71
2022/08/22 09:55:02;;;;;;;2.88;2.67;;;23.20;64.30;;;;;;5026915;28;20184;-72
2022/08/22 09:57:51;;;;;;;3.03;2.83;;;23.20;64.30;;;;;;5010002;28;20176;-71
2022/08/22 10:00:51;;;;;;;3.10;2.80;;;23.20;64.30;;;;;;5011703;28;20263;-72
2022/08/22 10:03:44;;;;;;;3.22;2.92;;;23.20;64.30;;;;;;5011576;28;20215;-71
2022/08/22 10:06:20;;;;;;;3.22;2.92;;;23.20;64.30;;;;;;5010438;28;20200;-72
2022/08/22 10:09:03;;;;;;;3.65;3.30;;;23.20;64.30;;;;;;5010388;28;20218;-72
2022/08/22 10:11:39;;;;;;;4.32;3.33;;;23.20;64.30;;;;;;5010581;28;20203;-71
2022/08/22 10:14:23;;;;;;;3.38;3.10;;;23.20;64.30;;;;;;5010110;28;20188;-71
2022/08/22 10:17:17;;;;;;;3.13;2.92;;;23.20;64.30;;;;;;5010868;28;20291;-72
2022/08/22 10:20:01;;;;;;;3.90;3.60;;;23.20;64.30;;;;;;5010208;28;20228;-72
2022/08/22 10:22:52;;;;;;;3.15;2.95;;;23.30;64.40;;;;;;5026780;28;20176;-72
2022/08/22 10:25:46;;;;;;;3.53;3.22;;;23.20;64.30;;;;;;5010344;28;20172;-72
2022/08/22 10:28:51;;;;;;;3.05;2.85;;;23.20;64.40;;;;;;4993318;28;20266;-72
2022/08/22 10:31:28;;;;;;;3.25;3.05;;;23.20;64.50;;;;;;5009194;28;20200;-73
2022/08/22 10:34:27;;;;;;;3.00;2.78;;;23.20;64.70;;;;;;5011900;28;20282;-71
2022/08/22 10:37:02;;;;;;;3.42;3.13;;;23.20;64.70;;;;;;5027770;28;20246;-71
2022/08/22 10:39:58;;;;;;;3.20;3.00;;;23.30;64.90;;;;;;5019433;28;20218;-72
2022/08/22 10:42:37;;;;;;;3.67;3.38;;;23.30;65.00;;;;;;5031466;28;20195;-72
2022/08/22 10:45:26;;;;;;;3.53;3.22;;;23.30;64.90;;;;;;5031686;28;20171;-72
2022/08/22 10:47:52;;;;;;;3.80;3.50;;;23.30;64.90;;;;;;5031251;28;20207;-72
2022/08/22 10:50:25;;;;;;;3.50;3.20;;;23.30;65.10;;;;;;5032906;28;20189;-72
2022/08/22 10:55:53;;;;;;;3.80;3.50;;;23.30;64.50;;;;;;5031435;28;20190;-72
2022/08/22 10:58:35;;;;;;;3.55;3.25;;;23.30;64.60;;;;;;5047492;28;20250;-72
2022/08/22 11:01:07;;;;;;;3.65;3.35;;;23.30;64.60;;;;;;5048251;28;20160;-72
2022/08/22 11:03:42;;;;;;;3.15;2.95;;;23.30;64.40;;;;;;5031410;28;20183;-72
2022/08/22 11:06:24;;;;;;;3.70;3.40;;;23.30;64.60;;;;;;5047918;28;20171;-72
2022/08/22 11:09:13;;;;;;;3.67;3.38;;;23.30;64.60;;;;;;5031515;28;20288;-72
2022/08/22 11:11:46;;;;;;;3.55;3.25;;;23.30;64.50;;;;;;5031681;28;20262;-72
2022/08/22 11:15:23;;;;;;;3.53;3.22;;;23.30;64.50;;;;;;5047825;28;20192;-72
2022/08/22 11:18:13;;;;;;;3.88;3.40;;;23.30;64.40;;;;;;5043297;28;20218;-71
2022/08/22 11:21:38;;;;;;;4.35;3.40;;;23.30;64.40;;;;;;5030939;28;20670;-72
2022/08/22 11:24:39;;;;;;;3.50;3.20;;;23.30;64.30;;;;;;5031455;28;20183;-72
2022/08/22 11:27:30;;;;;;;3.10;2.90;;;23.30;64.00;;;;;;5022521;28;20277;-73
2022/08/22 11:30:41;;;;;;;3.38;3.08;;;23.30;64.40;;;;;;5031316;28;20178;-72
2022/08/22 11:33:39;;;;;;;3.92;3.53;;;23.30;64.10;;;;;;5024829;28;20203;-72
2022/08/22 11:36:19;;;;;;;3.58;3.25;;;23.30;64.40;;;;;;5030965;28;20206;-72
2022/08/22 11:39:01;;;;;;;3.47;3.17;;;23.30;64.40;;;;;;5030664;28;20223;-73
2022/08/22 11:41:55;;;;;;;3.25;3.05;;;23.30;64.40;;;;;;5031221;28;20202;-72
2022/08/22 11:44:49;;;;;;;3.47;3.22;;;23.30;64.30;;;;;;5012758;28;20187;-72
2022/08/22 11:47:22;;;;;;;5.43;3.40;;;23.30;64.10;;;;;;5044730;28;20198;-72
2022/08/22 11:49:55;;;;;;;5.30;3.50;;;23.40;64.30;;;;;;5012817;28;20203;-72
2022/08/22 11:52:33;;;;;;;3.67;3.38;;;23.30;64.10;;;;;;5032921;28;20663;-72
2022/08/22 11:55:18;;;;;;;3.70;3.40;;;23.30;64.10;;;;;;5016363;28;20191;-72
2022/08/22 11:57:57;;;;;;;3.60;3.30;;;23.40;64.30;;;;;;5015780;28;20217;-72
2022/08/22 12:00:47;;;;;;;3.45;3.15;;;23.40;64.20;;;;;;5051000;28;20187;-72
2022/08/22 12:03:57;;;;;;;3.67;3.38;;;23.40;64.00;;;;;;5035609;28;20793;-72
2022/08/22 12:07:09;;;;;;;4.25;3.40;;;23.40;64.00;;;;;;5050826;28;20214;-72
2022/08/22 12:09:56;;;;;;;3.67;3.03;;;23.40;64.20;;;;;;5035222;28;20195;-72
2022/08/22 12:12:51;;;;;;;3.88;3.25;;;23.40;64.00;;;;;;5034188;28;20179;-72
2022/08/22 12:16:06;;;;;;;3.65;3.35;;;23.40;64.00;;;;;;5034132;28;20198;-72
2022/08/22 12:19:22;;;;;;;3.10;2.80;;;23.40;64.00;;;;;;5050137;28;20214;-72
2022/08/22 12:22:09;;;;;;;3.25;2.83;;;23.40;63.90;;;;;;5033016;28;20209;-72
2022/08/22 12:25:03;;;;;;;3.00;2.80;;;23.40;63.90;;;;;;5034040;28;20191;-72
2022/08/22 12:27:57;;;;;;;3.42;3.13;;;23.40;64.00;;;;;;5033185;28;20190;-72
2022/08/22 12:30:59;;;;;;;3.30;3.00;;;23.40;64.00;;;;;;5033833;28;20226;-72
2022/08/22 12:33:48;;;;;;;3.55;3.25;;;23.40;63.90;;;;;;5034936;28;20190;-72
2022/08/22 12:36:26;;;;;;;3.45;3.15;;;23.40;63.80;;;;;;5034811;28;20186;-72
2022/08/22 12:39:36;;;;;;;3.63;2.95;;;23.40;63.80;;;;;;5034195;28;20313;-73
2022/08/22 12:42:29;;;;;;;3.08;2.88;;;23.40;64.00;;;;;;5029991;28;20191;-73
2022/08/22 12:45:14;;;;;;;3.28;2.97;;;23.40;64.20;;;;;;5014329;28;20207;-72
2022/08/22 12:48:30;;;;;;;3.33;3.03;;;23.40;64.00;;;;;;5013810;28;20169;-73
2022/08/22 12:51:24;;;;;;;3.15;2.88;;;23.40;64.20;;;;;;5014199;28;20184;-73
2022/08/22 12:54:14;;;;;;;2.78;2.58;;;23.40;64.10;;;;;;5014126;28;20555;-72
2022/08/22 12:56:52;;;;;;;3.45;2.80;;;23.40;64.00;;;;;;5013420;28;20628;-72
2022/08/22 13:00:01;;;;;;;4.20;2.80;;;23.40;64.30;;;;;;5013933;28;20298;-73
2022/08/22 13:02:33;;;;;;;3.33;3.05;;;23.40;64.10;;;;;;5004508;28;20196;-73
2022/08/22 13:05:14;;;;;;;4.18;3.03;;;23.40;64.00;;;;;;5033657;28;20303;-73
2022/08/22 13:07:48;;;;;;;4.15;3.05;;;23.40;64.00;;;;;;5032229;28;20201;-72
2022/08/22 13:10:13;;;;;;;4.07;2.88;;;23.40;64.00;;;;;;5020633;28;20191;-72
2022/08/22 13:12:48;;;;;;;4.90;3.35;;;23.40;64.00;;;;;;5033580;28;20176;-72
2022/08/22 13:15:36;;;;;;;3.85;3.50;;;23.40;64.00;;;;;;5033352;28;20171;-72
2022/08/22 13:18:11;;;;;;;3.25;2.95;;;23.40;64.00;;;;;;5032875;28;20219;-72
2022/08/22 13:20:44;;;;;;;3.83;3.30;;;23.40;63.80;;;;;;5034543;28;20168;-72
2022/08/22 13:23:35;;;;;;;3.33;2.92;;;23.40;64.00;;;;;;5016644;28;20283;-72
2022/08/22 13:26:30;;;;;;;3.10;2.90;;;23.40;64.00;;;;;;5033225;28;20582;-72
2022/08/22 13:29:15;;;;;;;3.03;2.83;;;23.40;63.90;;;;;;5031124;28;20226;-72
2022/08/22 13:31:49;;;;;;;3.67;3.13;;;23.40;63.80;;;;;;5034240;28;20175;-72
2022/08/22 13:34:43;;;;;;;3.30;3.00;;;23.40;63.60;;;;;;5033312;28;20299;-72
2022/08/22 13:37:23;;;;;;;3.42;3.13;;;23.40;63.60;;;;;;5012729;28;20180;-72
2022/08/22 13:39:57;;;;;;;3.10;2.53;;;23.40;63.70;;;;;;5014229;28;20228;-72
2022/08/22 13:42:26;;;;;;;3.83;3.15;;;23.40;63.70;;;;;;5013102;28;20666;-72
2022/08/22 13:44:56;;;;;;;3.15;2.85;;;23.40;63.70;;;;;;5012866;28;20200;-72
2022/08/22 13:47:25;;;;;;;3.25;3.00;;;23.40;63.60;;;;;;5012554;28;20188;-72
2022/08/22 13:50:06;;;;;;;3.58;3.10;;;23.40;63.60;;;;;;5012889;28;20678;-72
2022/08/22 13:52:37;;;;;;;3.30;3.10;;;23.40;63.60;;;;;;5013038;28;20192;-72
2022/08/22 13:55:16;;;;;;;3.47;3.17;;;23.40;63.50;;;;;;5013187;28;20203;-72
2022/08/22 13:57:48;;;;;;;3.00;2.80;;;23.40;63.40;;;;;;5012127;28;20172;-72
2022/08/22 14:01:05;;;;;;;3.13;2.83;;;23.40;63.30;;;;;;5014036;28;20172;-72
2022/08/22 14:03:59;;;;;;;3.35;2.85;;;23.40;63.30;;;;;;5013391;28;20235;-72
2022/08/22 14:06:50;;;;;;;3.17;2.97;;;23.40;63.30;;;;;;5012839;28;20196;-72
2022/08/22 14:09:52;;;;;;;2.92;2.72;;;23.40;63.30;;;;;;5027450;28;20347;-72
2022/08/22 14:12:30;;;;;;;2.88;2.67;;;23.40;63.20;;;;;;5018392;28;20677;-72
2022/08/22 14:15:00;;;;;;;3.03;2.83;;;23.40;63.20;;;;;;5032424;28;20665;-72
2022/08/22 14:17:37;;;;;;;3.17;2.97;;;23.40;63.30;;;;;;5031778;28;20245;-72
2022/08/22 14:20:15;;;;;;;2.97;2.78;;;23.40;63.30;;;;;;5032629;28;20237;-72
2022/08/22 14:23:10;;;;;;;3.05;2.75;;;23.40;63.20;;;;;;5032309;28;20194;-72
2022/08/22 14:25:41;;;;;;;3.00;2.80;;;23.50;63.30;;;;;;5032160;28;20195;-72
2022/08/22 14:28:22;;;;;;;2.88;2.67;;;23.40;63.20;;;;;;5032831;28;20226;-72
2022/08/22 14:31:09;;;;;;;3.58;2.78;;;23.50;63.70;;;;;;5033359;28;20172;-72
2022/08/22 14:34:00;;;;;;;2.90;2.70;;;23.40;63.50;;;;;;5032149;28;20186;-72
2022/08/22 14:36:41;;;;;;;3.38;3.00;;;23.40;63.30;;;;;;5033081;28;20194;-72
2022/08/22 14:39:21;;;;;;;3.10;2.83;;;23.40;63.20;;;;;;5032320;28;20218;-72